createdAt,value
2018-01-02T00:00:33.508Z,78.99
2018-01-02T00:01:33.420Z,78.42
2018-01-02T00:02:33.329Z,77.76
2018-01-02T00:03:33.237Z,78.04
2018-01-02T00:04:33.152Z,78.29
2018-01-02T00:05:33.064Z,78.57
2018-01-02T00:06:32.984Z,78.86
2018-01-02T00:07:32.890Z,78.77
2018-01-02T00:08:32.797Z,78.19
2018-01-02T00:09:32.708Z,77.53
2018-01-02T00:10:32.622Z,77.43
2018-01-02T00:11:32.532Z,77.34
2018-01-02T00:12:32.504Z,78.10
2018-01-02T00:13:32.356Z,77.43
2018-01-02T00:14:32.260Z,77.43
2018-01-02T00:15:32.177Z,77.43
2018-01-02T00:16:32.083Z,77.62
2018-01-02T00:17:31.993Z,77.53
2018-01-02T00:18:31.906Z,77.34
2018-01-02T00:19:31.819Z,77.72
2018-01-02T00:20:31.728Z,77.91
2018-01-02T00:21:31.639Z,78.00
2018-01-02T00:22:31.551Z,78.19
2018-01-02T00:23:31.461Z,77.72
2018-01-02T00:24:31.370Z,78.38
2018-01-02T00:25:31.281Z,78.19
2018-01-02T00:26:31.193Z,78.96
2018-01-02T00:27:31.105Z,78.96
2018-01-02T00:28:31.017Z,78.67
2018-01-02T00:29:30.926Z,78.86
2018-01-02T00:30:30.845Z,79.05
2018-01-02T00:31:30.749Z,78.86
2018-01-02T00:32:30.662Z,78.67
2018-01-02T00:33:30.573Z,78.48
2018-01-02T00:34:30.485Z,79.81
2018-01-02T00:35:30.404Z,79.72
2018-01-02T00:36:30.308Z,79.43
2018-01-02T00:37:30.274Z,79.62
2018-01-02T00:38:30.129Z,78.86
2018-01-02T00:39:30.037Z,79.62
2018-01-02T00:40:29.950Z,79.24
2018-01-02T00:41:29.866Z,78.86
2018-01-02T00:42:29.778Z,78.86
2018-01-02T00:43:29.685Z,78.57
2018-01-02T00:44:29.598Z,78.57
2018-01-02T00:45:29.513Z,77.81
2018-01-02T00:46:29.520Z,77.53
2018-01-02T00:47:29.335Z,77.43
2018-01-02T00:48:29.243Z,77.43
2018-01-02T00:49:29.152Z,77.34
2018-01-02T00:50:29.070Z,77.05
2018-01-02T00:51:28.976Z,76.76
2018-01-02T00:52:28.886Z,76.76
2018-01-02T00:53:28.797Z,77.05
2018-01-02T00:54:28.709Z,76.20
2018-01-02T00:55:28.624Z,76.01
2018-01-02T00:56:28.530Z,76.57
2018-01-02T00:57:28.445Z,76.20
2018-01-02T00:58:28.352Z,75.81
2018-01-02T00:59:28.269Z,75.81
2018-01-02T01:00:28.179Z,75.53
2018-01-02T01:01:28.088Z,75.72
2018-01-02T01:02:28.001Z,75.72
2018-01-02T01:03:27.912Z,75.72
2018-01-02T01:04:27.828Z,75.72
2018-01-02T01:05:27.735Z,75.53
2018-01-02T01:06:27.645Z,75.24
2018-01-02T01:07:27.604Z,75.34
2018-01-02T01:08:27.490Z,74.48
2018-01-02T01:09:27.381Z,74.96
2018-01-02T01:10:27.290Z,74.39
2018-01-02T01:11:27.204Z,74.58
2018-01-02T01:12:27.113Z,74.48
2018-01-02T01:13:27.022Z,74.48
2018-01-02T01:14:26.936Z,74.58
2018-01-02T01:15:26.847Z,74.01
2018-01-02T01:16:26.761Z,74.58
2018-01-02T01:17:26.691Z,74.29
2018-01-02T01:18:26.585Z,74.01
2018-01-02T01:19:26.496Z,74.01
2018-01-02T01:20:26.412Z,74.29
2018-01-02T01:21:26.320Z,74.58
2018-01-02T01:22:26.227Z,74.39
2018-01-02T01:23:26.154Z,74.39
2018-01-02T01:24:26.050Z,74.39
2018-01-02T01:25:25.962Z,74.96
2018-01-02T01:26:25.877Z,74.87
2018-01-02T01:27:25.784Z,74.96
2018-01-02T01:28:25.698Z,74.96
2018-01-02T01:29:25.604Z,75.53
2018-01-02T01:30:25.517Z,75.53
2018-01-02T01:31:25.429Z,75.05
2018-01-02T01:32:25.349Z,75.24
2018-01-02T01:33:25.252Z,75.62
2018-01-02T01:34:25.162Z,75.91
2018-01-02T01:35:25.078Z,76.48
2018-01-02T01:36:24.986Z,76.20
2018-01-02T01:37:24.906Z,75.53
2018-01-02T01:38:24.812Z,76.01
2018-01-02T01:39:24.722Z,75.91
2018-01-02T01:40:24.631Z,76.01
2018-01-02T01:41:24.539Z,76.39
2018-01-02T01:42:24.452Z,76.48
2018-01-02T01:43:24.359Z,76.67
2018-01-02T01:44:24.280Z,76.96
2018-01-02T01:45:24.206Z,76.57
2018-01-02T01:46:24.101Z,76.67
2018-01-02T01:47:24.016Z,76.86
2018-01-02T01:48:23.916Z,76.67
2018-01-02T01:49:23.838Z,76.67
2018-01-02T01:50:23.740Z,76.86
2018-01-02T01:51:23.683Z,76.76
2018-01-02T01:52:23.567Z,76.48
2018-01-02T01:53:23.498Z,76.67
2018-01-02T01:54:23.388Z,76.67
2018-01-02T01:55:23.297Z,76.67
2018-01-02T01:56:23.205Z,76.29
2018-01-02T01:57:23.124Z,76.86
2018-01-02T01:58:23.032Z,76.96
2018-01-02T01:59:22.948Z,77.34
2018-01-02T02:00:22.859Z,76.96
2018-01-02T02:01:22.766Z,76.76
2018-01-02T02:02:22.684Z,76.29
2018-01-02T02:03:22.593Z,76.67
2018-01-02T02:04:22.503Z,76.57
2018-01-02T02:05:22.421Z,76.76
2018-01-02T02:06:22.330Z,76.39
2018-01-02T02:07:22.263Z,76.20
2018-01-02T02:08:22.151Z,76.29
2018-01-02T02:09:22.068Z,76.57
2018-01-02T02:10:21.971Z,76.67
2018-01-02T02:11:21.881Z,76.20
2018-01-02T02:12:21.797Z,76.57
2018-01-02T02:13:21.706Z,76.20
2018-01-02T02:14:21.620Z,76.76
2018-01-02T02:15:21.527Z,76.96
2018-01-02T02:16:21.440Z,76.67
2018-01-02T02:17:21.350Z,76.10
2018-01-02T02:18:21.344Z,76.20
2018-01-02T02:19:21.178Z,76.01
2018-01-02T02:20:21.089Z,75.91
2018-01-02T02:21:21.000Z,76.39
2018-01-02T02:22:20.905Z,76.67
2018-01-02T02:23:20.814Z,76.57
2018-01-02T02:24:20.735Z,76.63
2018-01-02T02:25:20.638Z,76.29
2018-01-02T02:26:20.549Z,76.67
2018-01-02T02:27:20.472Z,77.05
2018-01-02T02:28:20.375Z,76.67
2018-01-02T02:29:20.286Z,76.06
2018-01-02T02:30:20.192Z,76.86
2018-01-02T02:31:20.107Z,76.29
2018-01-02T02:32:20.020Z,76.48
2018-01-02T02:33:19.928Z,76.76
2018-01-02T02:34:19.838Z,76.57
2018-01-02T02:35:19.747Z,76.29
2018-01-02T02:36:19.662Z,76.39
2018-01-02T02:37:19.571Z,76.57
2018-01-02T02:38:19.477Z,76.10
2018-01-02T02:39:19.390Z,76.29
2018-01-02T02:40:19.308Z,76.29
2018-01-02T02:41:19.214Z,76.29
2018-01-02T02:42:19.127Z,76.10
2018-01-02T02:43:19.036Z,76.10
2018-01-02T02:44:18.951Z,76.10
2018-01-02T02:45:18.862Z,76.10
2018-01-02T02:46:18.770Z,76.20
2018-01-02T02:47:18.679Z,75.62
2018-01-02T02:48:18.595Z,76.20
2018-01-02T02:49:18.512Z,75.91
2018-01-02T02:50:18.420Z,76.25
2018-01-02T02:51:18.329Z,76.10
2018-01-02T02:52:18.236Z,75.96
2018-01-02T02:53:18.145Z,75.96
2018-01-02T02:54:18.062Z,75.81
2018-01-02T02:55:17.971Z,76.48
2018-01-02T02:56:17.886Z,76.01
2018-01-02T02:57:17.801Z,76.06
2018-01-02T02:58:17.703Z,76.20
2018-01-02T02:59:17.616Z,76.48
2018-01-02T03:00:17.522Z,76.48
2018-01-02T03:01:17.431Z,76.10
2018-01-02T03:02:17.347Z,75.96
2018-01-02T03:03:17.255Z,76.25
2018-01-02T03:04:17.168Z,76.44
2018-01-02T03:05:17.085Z,76.63
2018-01-02T03:06:16.987Z,77.11
2018-01-02T03:07:16.897Z,76.67
2018-01-02T03:08:16.852Z,76.63
2018-01-02T03:09:16.740Z,76.39
2018-01-02T03:10:16.631Z,76.76
2018-01-02T03:11:16.539Z,77.15
2018-01-02T03:12:16.463Z,76.92
2018-01-02T03:13:16.369Z,77.58
2018-01-02T03:14:16.278Z,77.30
2018-01-02T03:15:16.192Z,77.53
2018-01-02T03:16:16.102Z,77.39
2018-01-02T03:17:16.014Z,78.16
2018-01-02T03:18:16.165Z,78.44
2018-01-02T03:19:15.842Z,78.63
2018-01-02T03:20:15.745Z,79.39
2018-01-02T03:21:15.660Z,79.96
2018-01-02T03:22:15.652Z,79.49
2018-01-02T03:23:15.481Z,80.15
2018-01-02T03:24:15.386Z,79.86
2018-01-02T03:25:15.299Z,81.01
2018-01-02T03:26:15.208Z,81.10
2018-01-02T03:27:15.123Z,80.91
2018-01-02T03:28:15.038Z,80.82
2018-01-02T03:29:14.949Z,81.29
2018-01-02T03:30:14.853Z,81.67
2018-01-02T03:31:14.763Z,81.96
2018-01-02T03:32:14.671Z,81.58
2018-01-02T03:33:14.584Z,81.86
2018-01-02T03:34:14.516Z,82.15
2018-01-02T03:35:14.406Z,81.96
2018-01-02T03:36:14.322Z,82.62
2018-01-02T03:37:14.224Z,82.05
2018-01-02T03:38:14.138Z,82.24
2018-01-02T03:39:14.051Z,82.15
2018-01-02T03:40:13.961Z,82.24
2018-01-02T03:41:13.870Z,82.71
2018-01-02T03:42:13.800Z,82.81
2018-01-02T03:43:13.693Z,83.10
2018-01-02T03:44:13.642Z,82.71
2018-01-02T03:45:13.518Z,82.53
2018-01-02T03:46:13.428Z,82.71
2018-01-02T03:47:13.340Z,82.71
2018-01-02T03:48:13.265Z,82.53
2018-01-02T03:49:13.168Z,83.10
2018-01-02T03:50:13.081Z,83.29
2018-01-02T03:51:12.998Z,83.00
2018-01-02T03:52:12.895Z,83.10
2018-01-02T03:53:12.807Z,83.10
2018-01-02T03:54:12.725Z,84.24
2018-01-02T03:55:12.635Z,83.76
2018-01-02T03:56:12.550Z,83.19
2018-01-02T03:57:12.456Z,83.58
2018-01-02T03:58:12.373Z,83.58
2018-01-02T03:59:12.282Z,84.05
2018-01-02T04:00:12.193Z,84.62
2018-01-02T04:01:12.104Z,84.24
2018-01-02T04:02:12.030Z,84.95
2018-01-02T04:03:11.928Z,84.62
2018-01-02T04:04:11.840Z,84.91
2018-01-02T04:05:11.756Z,84.14
2018-01-02T04:06:11.663Z,83.95
2018-01-02T04:07:11.571Z,83.58
2018-01-02T04:08:11.490Z,83.67
2018-01-02T04:09:11.401Z,83.76
2018-01-02T04:10:11.306Z,83.95
2018-01-02T04:11:11.219Z,83.95
2018-01-02T04:12:11.135Z,84.24
2018-01-02T04:13:11.043Z,84.91
2018-01-02T04:14:10.956Z,85.57
2018-01-02T04:15:10.863Z,84.81
2018-01-02T04:16:10.786Z,84.43
2018-01-02T04:17:10.696Z,84.72
2018-01-02T04:18:10.604Z,84.81
2018-01-02T04:19:10.517Z,84.62
2018-01-02T04:20:10.427Z,84.62
2018-01-02T04:21:10.338Z,85.47
2018-01-02T04:22:10.252Z,85.57
2018-01-02T04:23:10.169Z,85.66
2018-01-02T04:24:10.072Z,85.00
2018-01-02T04:25:09.991Z,85.38
2018-01-02T04:26:09.901Z,85.66
2018-01-02T04:27:09.809Z,85.38
2018-01-02T04:28:09.741Z,85.66
2018-01-02T04:29:09.640Z,84.81
2018-01-02T04:30:09.562Z,85.00
2018-01-02T04:31:09.456Z,84.24
2018-01-02T04:32:09.371Z,84.81
2018-01-02T04:33:09.280Z,84.81
2018-01-02T04:34:09.196Z,84.91
2018-01-02T04:35:09.102Z,84.91
2018-01-02T04:36:09.012Z,84.81
2018-01-02T04:37:08.933Z,85.10
2018-01-02T04:38:08.835Z,84.81
2018-01-02T04:39:08.742Z,85.38
2018-01-02T04:40:08.655Z,85.57
2018-01-02T04:41:08.617Z,86.43
2018-01-02T04:42:08.485Z,86.71
2018-01-02T04:43:08.395Z,85.66
2018-01-02T04:44:08.306Z,85.76
2018-01-02T04:45:08.218Z,85.38
2018-01-02T04:46:08.128Z,85.57
2018-01-02T04:47:08.044Z,85.57
2018-01-02T04:48:07.968Z,85.76
2018-01-02T04:49:07.868Z,85.10
2018-01-02T04:50:07.772Z,86.14
2018-01-02T04:51:07.683Z,86.05
2018-01-02T04:52:07.602Z,86.14
2018-01-02T04:53:07.508Z,86.61
2018-01-02T04:54:07.426Z,86.61
2018-01-02T04:55:07.330Z,86.05
2018-01-02T04:56:07.244Z,86.67
2018-01-02T04:57:07.153Z,87.19
2018-01-02T04:58:07.069Z,86.33
2018-01-02T04:59:06.980Z,86.90
2018-01-02T05:00:06.887Z,86.61
2018-01-02T05:01:06.801Z,87.19
2018-01-02T05:02:06.717Z,87.28
2018-01-02T05:03:06.624Z,86.61
2018-01-02T05:04:06.537Z,86.43
2018-01-02T05:05:06.447Z,86.61
2018-01-02T05:06:06.357Z,86.14
2018-01-02T05:07:06.270Z,86.52
2018-01-02T05:08:06.199Z,86.80
2018-01-02T05:09:06.097Z,86.71
2018-01-02T05:10:06.006Z,86.52
2018-01-02T05:11:05.931Z,86.71
2018-01-02T05:12:05.832Z,86.05
2018-01-02T05:13:05.736Z,86.90
2018-01-02T05:14:05.650Z,87.19
2018-01-02T05:15:05.569Z,87.28
2018-01-02T05:16:05.473Z,87.09
2018-01-02T05:17:05.391Z,86.90
2018-01-02T05:18:05.294Z,86.61
2018-01-02T05:19:05.214Z,86.61
2018-01-02T05:20:05.117Z,86.99
2018-01-02T05:21:05.036Z,86.99
2018-01-02T05:22:04.945Z,87.19
2018-01-02T05:23:04.854Z,87.09
2018-01-02T05:24:04.772Z,86.90
2018-01-02T05:25:04.681Z,87.09
2018-01-02T05:26:04.588Z,87.19
2018-01-02T05:27:04.503Z,86.90
2018-01-02T05:28:04.414Z,86.90
2018-01-02T05:29:04.325Z,87.57
2018-01-02T05:30:04.241Z,87.57
2018-01-02T05:31:04.151Z,87.76
2018-01-02T05:32:04.064Z,88.13
2018-01-02T05:33:03.968Z,87.85
2018-01-02T05:34:03.884Z,87.62
2018-01-02T05:35:03.787Z,87.85
2018-01-02T05:36:03.742Z,88.04
2018-01-02T05:37:03.615Z,87.95
2018-01-02T05:38:03.529Z,87.47
2018-01-02T05:39:03.437Z,87.76
2018-01-02T05:40:03.350Z,87.38
2018-01-02T05:41:03.262Z,87.81
2018-01-02T05:42:03.178Z,87.57
2018-01-02T05:43:03.086Z,88.19
2018-01-02T05:44:02.994Z,87.85
2018-01-02T05:45:02.910Z,88.13
2018-01-02T05:46:02.820Z,87.38
2018-01-02T05:47:02.732Z,87.38
2018-01-02T05:48:02.642Z,87.38
2018-01-02T05:49:02.552Z,87.09
2018-01-02T05:50:02.467Z,86.99
2018-01-02T05:51:02.385Z,87.28
2018-01-02T05:52:02.292Z,87.28
2018-01-02T05:53:02.204Z,86.99
2018-01-02T05:54:02.108Z,86.99
2018-01-02T05:55:02.016Z,86.71
2018-01-02T05:56:01.933Z,86.52
2018-01-02T05:57:01.850Z,86.71
2018-01-02T05:58:01.765Z,86.52
2018-01-02T05:59:01.669Z,86.14
2018-01-02T06:00:01.583Z,86.61
2018-01-02T06:01:01.489Z,85.57
2018-01-02T06:02:01.401Z,85.57
2018-01-02T06:03:01.311Z,84.72
2018-01-02T06:04:01.232Z,84.33
2018-01-02T06:05:01.136Z,84.33
2018-01-02T06:06:01.054Z,83.86
2018-01-02T06:07:00.959Z,83.48
2018-01-02T06:08:00.870Z,83.76
2018-01-02T06:09:00.775Z,83.39
2018-01-02T06:10:00.704Z,83.39
2018-01-02T06:11:00.602Z,84.86
2018-01-02T06:12:00.514Z,84.67
2018-01-02T06:13:00.433Z,85.10
2018-01-02T06:14:00.334Z,84.14
2018-01-02T06:15:00.249Z,83.76
2018-01-02T06:16:00.161Z,83.76
2018-01-02T06:17:00.072Z,82.87
2018-01-02T06:17:59.979Z,83.29
2018-01-02T06:18:59.892Z,83.48
2018-01-02T06:19:59.823Z,83.19
2018-01-02T06:20:59.716Z,82.91
2018-01-02T06:21:59.629Z,83.19
2018-01-02T06:22:59.541Z,83.00
2018-01-02T06:23:59.453Z,82.91
2018-01-02T06:24:59.360Z,83.10
2018-01-02T06:25:59.270Z,82.91
2018-01-02T06:26:59.183Z,82.81
2018-01-02T06:27:59.090Z,82.15
2018-01-02T06:28:59.011Z,81.96
2018-01-02T06:29:58.917Z,81.96
2018-01-02T06:30:58.829Z,82.29
2018-01-02T06:31:58.739Z,81.77
2018-01-02T06:32:58.646Z,82.05
2018-01-02T06:33:58.565Z,82.24
2018-01-02T06:34:58.479Z,82.62
2018-01-02T06:35:58.389Z,82.71
2018-01-02T06:36:58.323Z,82.58
2018-01-02T06:37:58.220Z,82.96
2018-01-02T06:38:58.119Z,82.68
2018-01-02T06:39:58.032Z,82.96
2018-01-02T06:40:57.943Z,82.91
2018-01-02T06:41:57.857Z,82.81
2018-01-02T06:42:57.768Z,83.29
2018-01-02T06:43:57.685Z,82.77
2018-01-02T06:44:57.589Z,83.10
2018-01-02T06:45:57.499Z,82.91
2018-01-02T06:46:57.420Z,83.34
2018-01-02T06:47:57.320Z,83.76
2018-01-02T06:48:57.232Z,83.67
2018-01-02T06:49:57.144Z,83.82
2018-01-02T06:50:57.065Z,84.29
2018-01-02T06:51:56.968Z,84.10
2018-01-02T06:52:56.877Z,84.29
2018-01-02T06:53:56.788Z,83.34
2018-01-02T06:54:56.695Z,83.34
2018-01-02T06:55:56.611Z,83.44
2018-01-02T06:56:56.524Z,83.82
2018-01-02T06:57:56.438Z,84.01
2018-01-02T06:58:56.343Z,83.34
2018-01-02T06:59:56.255Z,83.91
2018-01-02T07:00:56.168Z,84.01
2018-01-02T07:01:56.072Z,84.58
2018-01-02T07:02:55.982Z,85.05
2018-01-02T07:03:55.901Z,84.86
2018-01-02T07:04:55.811Z,84.77
2018-01-02T07:05:55.719Z,84.20
2018-01-02T07:06:55.636Z,84.14
2018-01-02T07:07:55.540Z,84.01
2018-01-02T07:08:55.467Z,84.86
2018-01-02T07:09:55.362Z,84.67
2018-01-02T07:10:55.275Z,85.43
2018-01-02T07:11:55.185Z,85.72
2018-01-02T07:12:55.101Z,85.24
2018-01-02T07:13:55.008Z,84.77
2018-01-02T07:14:54.918Z,85.53
2018-01-02T07:15:54.842Z,85.62
2018-01-02T07:16:54.743Z,85.53
2018-01-02T07:17:54.653Z,86.29
2018-01-02T07:18:54.564Z,85.81
2018-01-02T07:19:54.472Z,85.81
2018-01-02T07:20:54.382Z,85.91
2018-01-02T07:21:54.357Z,86.76
2018-01-02T07:22:54.207Z,86.67
2018-01-02T07:23:54.134Z,85.91
2018-01-02T07:24:54.029Z,85.72
2018-01-02T07:25:53.938Z,85.62
2018-01-02T07:26:53.849Z,84.77
2018-01-02T07:27:53.762Z,85.72
2018-01-02T07:28:53.668Z,85.91
2018-01-02T07:29:53.585Z,85.81
2018-01-02T07:30:53.491Z,85.53
2018-01-02T07:31:53.403Z,85.72
2018-01-02T07:32:53.314Z,84.58
2018-01-02T07:33:53.224Z,84.95
2018-01-02T07:34:53.134Z,84.86
2018-01-02T07:35:53.057Z,85.24
2018-01-02T07:36:52.958Z,85.43
2018-01-02T07:37:52.869Z,85.53
2018-01-02T07:38:52.776Z,84.95
2018-01-02T07:39:52.688Z,84.86
2018-01-02T07:40:52.610Z,84.67
2018-01-02T07:41:52.522Z,84.77
2018-01-02T07:42:52.420Z,84.01
2018-01-02T07:43:52.338Z,83.91
2018-01-02T07:44:52.250Z,83.91
2018-01-02T07:45:52.160Z,84.01
2018-01-02T07:46:52.077Z,83.58
2018-01-02T07:47:51.977Z,83.53
2018-01-02T07:48:51.889Z,83.44
2018-01-02T07:49:51.801Z,83.39
2018-01-02T07:50:51.721Z,83.19
2018-01-02T07:51:51.628Z,82.77
2018-01-02T07:52:51.532Z,83.34
2018-01-02T07:53:51.452Z,83.44
2018-01-02T07:54:51.380Z,83.53
2018-01-02T07:55:51.272Z,84.01
2018-01-02T07:56:51.207Z,83.91
2018-01-02T07:57:51.095Z,83.53
2018-01-02T07:58:51.004Z,83.53
2018-01-02T07:59:50.918Z,83.62
2018-01-02T08:00:50.827Z,83.62
2018-01-02T08:01:50.742Z,83.25
2018-01-02T08:02:50.665Z,83.44
2018-01-02T08:03:50.557Z,84.01
2018-01-02T08:04:50.473Z,84.77
2018-01-02T08:05:50.384Z,83.34
2018-01-02T08:06:50.293Z,83.62
2018-01-02T08:07:50.210Z,83.25
2018-01-02T08:08:50.144Z,83.06
2018-01-02T08:09:50.034Z,84.10
2018-01-02T08:10:49.934Z,84.10
2018-01-02T08:11:49.849Z,84.10
2018-01-02T08:12:49.764Z,85.15
2018-01-02T08:13:49.668Z,84.20
2018-01-02T08:14:49.590Z,84.29
2018-01-02T08:15:49.494Z,84.10
2018-01-02T08:16:49.419Z,84.20
2018-01-02T08:17:49.324Z,84.10
2018-01-02T08:18:49.230Z,84.20
2018-01-02T08:19:49.131Z,84.10
2018-01-02T08:20:49.044Z,83.34
2018-01-02T08:21:48.954Z,83.34
2018-01-02T08:22:48.868Z,83.72
2018-01-02T08:23:48.789Z,83.62
2018-01-02T08:24:48.689Z,84.20
2018-01-02T08:25:48.605Z,84.10
2018-01-02T08:26:48.510Z,83.91
2018-01-02T08:27:48.419Z,83.34
2018-01-02T08:28:48.331Z,83.53
2018-01-02T08:29:48.245Z,83.25
2018-01-02T08:30:48.154Z,83.62
2018-01-02T08:31:48.076Z,83.62
2018-01-02T08:32:47.986Z,83.62
2018-01-02T08:33:47.884Z,83.91
2018-01-02T08:34:47.799Z,84.01
2018-01-02T08:35:47.709Z,83.53
2018-01-02T08:36:47.619Z,83.25
2018-01-02T08:37:47.529Z,82.87
2018-01-02T08:38:47.462Z,82.77
2018-01-02T08:39:47.351Z,82.58
2018-01-02T08:40:47.262Z,82.39
2018-01-02T08:41:47.175Z,82.39
2018-01-02T08:42:47.085Z,82.68
2018-01-02T08:43:46.998Z,82.68
2018-01-02T08:44:46.946Z,82.39
2018-01-02T08:45:46.823Z,81.82
2018-01-02T08:46:46.729Z,81.63
2018-01-02T08:47:46.640Z,81.54
2018-01-02T08:48:46.552Z,81.73
2018-01-02T08:49:46.464Z,82.20
2018-01-02T08:50:46.373Z,82.68
2018-01-02T08:51:46.285Z,82.77
2018-01-02T08:52:46.193Z,82.43
2018-01-02T08:53:46.105Z,81.77
2018-01-02T08:54:46.030Z,81.86
2018-01-02T08:55:45.931Z,80.91
2018-01-02T08:56:45.840Z,81.82
2018-01-02T08:57:45.749Z,80.87
2018-01-02T08:58:45.671Z,80.96
2018-01-02T08:59:45.573Z,80.96
2018-01-02T09:00:45.488Z,81.01
2018-01-02T09:01:45.389Z,81.01
2018-01-02T09:02:45.308Z,80.58
2018-01-02T09:03:45.221Z,80.53
2018-01-02T09:04:45.133Z,81.10
2018-01-02T09:05:45.032Z,81.20
2018-01-02T09:06:44.954Z,80.49
2018-01-02T09:07:44.859Z,81.06
2018-01-02T09:08:44.773Z,80.68
2018-01-02T09:09:44.678Z,81.06
2018-01-02T09:10:44.593Z,81.25
2018-01-02T09:11:44.512Z,80.91
2018-01-02T09:12:44.414Z,80.63
2018-01-02T09:13:44.364Z,80.44
2018-01-02T09:14:44.237Z,80.34
2018-01-02T09:15:44.157Z,80.72
2018-01-02T09:16:44.059Z,80.72
2018-01-02T09:17:43.970Z,80.34
2018-01-02T09:18:43.879Z,80.24
2018-01-02T09:19:43.789Z,79.96
2018-01-02T09:20:43.707Z,80.15
2018-01-02T09:21:43.673Z,80.24
2018-01-02T09:22:43.527Z,80.05
2018-01-02T09:23:43.432Z,80.24
2018-01-02T09:24:43.356Z,79.86
2018-01-02T09:25:43.255Z,80.44
2018-01-02T09:26:43.170Z,80.05
2018-01-02T09:27:43.081Z,80.63
2018-01-02T09:28:42.992Z,81.67
2018-01-02T09:29:42.911Z,80.86
2018-01-02T09:30:42.822Z,79.86
2018-01-02T09:31:42.728Z,79.96
2018-01-02T09:32:42.641Z,80.38
2018-01-02T09:33:42.548Z,79.81
2018-01-02T09:34:42.520Z,78.72
2018-01-02T09:35:42.370Z,79.49
2018-01-02T09:36:42.290Z,79.39
2018-01-02T09:37:42.195Z,79.68
2018-01-02T09:38:42.103Z,79.58
2018-01-02T09:39:42.017Z,79.58
2018-01-02T09:40:41.923Z,79.96
2018-01-02T09:41:41.850Z,79.58
2018-01-02T09:42:41.751Z,79.86
2018-01-02T09:43:41.664Z,79.96
2018-01-02T09:44:41.569Z,79.96
2018-01-02T09:45:41.483Z,80.05
2018-01-02T09:46:41.389Z,79.77
2018-01-02T09:47:41.310Z,79.49
2018-01-02T09:48:41.224Z,79.68
2018-01-02T09:49:41.132Z,79.86
2018-01-02T09:50:41.054Z,79.58
2018-01-02T09:51:40.950Z,79.68
2018-01-02T09:52:40.861Z,80.05
2018-01-02T09:53:40.774Z,80.24
2018-01-02T09:54:40.685Z,80.53
2018-01-02T09:55:40.600Z,80.24
2018-01-02T09:56:40.498Z,80.05
2018-01-02T09:57:40.412Z,80.05
2018-01-02T09:58:40.343Z,79.58
2018-01-02T09:59:40.251Z,79.68
2018-01-02T10:00:40.155Z,80.05
2018-01-02T10:01:40.104Z,79.49
2018-01-02T10:02:39.974Z,79.86
2018-01-02T10:03:39.880Z,79.49
2018-01-02T10:04:39.793Z,79.39
2018-01-02T10:05:39.703Z,79.30
2018-01-02T10:06:39.614Z,80.05
2018-01-02T10:07:39.531Z,79.01
2018-01-02T10:08:39.440Z,78.82
2018-01-02T10:09:39.351Z,79.01
2018-01-02T10:10:39.253Z,79.68
2018-01-02T10:11:39.171Z,78.72
2018-01-02T10:12:39.080Z,78.25
2018-01-02T10:13:38.997Z,77.91
2018-01-02T10:14:38.903Z,77.20
2018-01-02T10:15:38.811Z,77.39
2018-01-02T10:16:38.730Z,76.92
2018-01-02T10:17:38.636Z,76.48
2018-01-02T10:18:38.543Z,76.29
2018-01-02T10:19:38.458Z,75.24
2018-01-02T10:20:38.365Z,75.24
2018-01-02T10:21:38.279Z,74.39
2018-01-02T10:22:38.184Z,74.39
2018-01-02T10:23:38.108Z,73.72
2018-01-02T10:24:38.027Z,74.48
2018-01-02T10:25:37.925Z,73.15
2018-01-02T10:26:37.840Z,73.34
2018-01-02T10:27:37.795Z,73.44
2018-01-02T10:28:37.686Z,73.47
2018-01-02T10:29:37.580Z,72.46
2018-01-02T10:30:37.480Z,70.94
2018-01-02T10:31:37.394Z,69.83
2018-01-02T10:32:37.303Z,69.35
2018-01-02T10:33:37.226Z,69.39
2018-01-02T10:34:37.127Z,68.53
2018-01-02T10:35:37.052Z,67.61
2018-01-02T10:36:36.961Z,66.18
2018-01-02T10:37:36.874Z,67.33
2018-01-02T10:38:36.790Z,66.28
2018-01-02T10:39:36.700Z,66.18
2018-01-02T10:40:36.623Z,66.91
2018-01-02T10:41:36.536Z,67.58
2018-01-02T10:42:36.444Z,67.96
2018-01-02T10:43:36.366Z,68.24
2018-01-02T10:44:36.276Z,68.72
2018-01-02T10:45:36.198Z,68.53
2018-01-02T10:46:36.112Z,69.17
2018-01-02T10:47:36.020Z,69.74
2018-01-02T10:48:35.948Z,68.78
2018-01-02T10:49:35.871Z,70.02
2018-01-02T10:50:35.773Z,70.37
2018-01-02T10:51:35.676Z,71.36
2018-01-02T10:52:35.600Z,70.88
2018-01-02T10:53:35.511Z,71.03
2018-01-02T10:54:35.419Z,71.89
2018-01-02T10:55:35.350Z,72.85
2018-01-02T10:56:35.249Z,73.13
2018-01-02T10:57:35.172Z,73.61
2018-01-02T10:58:35.073Z,73.89
2018-01-02T10:59:34.988Z,74.62
2018-01-02T11:00:34.907Z,75.28
2018-01-02T11:01:34.818Z,75.76
2018-01-02T11:02:34.719Z,76.04
2018-01-02T11:03:34.637Z,75.28
2018-01-02T11:04:34.544Z,75.13
2018-01-02T11:05:34.465Z,75.47
2018-01-02T11:06:34.368Z,75.38
2018-01-02T11:07:34.284Z,74.71
2018-01-02T11:08:34.194Z,74.94
2018-01-02T11:09:34.109Z,75.57
2018-01-02T11:10:34.023Z,75.51
2018-01-02T11:11:33.932Z,74.94
2018-01-02T11:12:33.854Z,75.04
2018-01-02T11:13:33.758Z,75.04
2018-01-02T11:14:33.677Z,74.18
2018-01-02T11:15:33.590Z,74.02
2018-01-02T11:16:33.501Z,73.07
2018-01-02T11:17:33.419Z,73.13
2018-01-02T11:18:33.334Z,73.51
2018-01-02T11:19:33.240Z,73.51
2018-01-02T11:20:33.185Z,73.80
2018-01-02T11:21:33.074Z,72.94
2018-01-02T11:22:32.984Z,72.94
2018-01-02T11:23:32.912Z,73.13
2018-01-02T11:24:32.813Z,73.61
2018-01-02T11:25:32.730Z,74.46
2018-01-02T11:26:32.634Z,73.89
2018-01-02T11:27:32.580Z,74.56
2018-01-02T11:28:32.509Z,73.51
2018-01-02T11:29:32.369Z,73.99
2018-01-02T11:30:32.292Z,74.27
2018-01-02T11:31:32.198Z,74.56
2018-01-02T11:32:32.243Z,74.27
2018-01-02T11:33:32.026Z,74.37
2018-01-02T11:34:31.937Z,74.65
2018-01-02T11:35:31.850Z,74.33
2018-01-02T11:36:31.764Z,74.90
2018-01-02T11:37:31.673Z,75.09
2018-01-02T11:38:31.587Z,75.28
2018-01-02T11:39:31.502Z,75.38
2018-01-02T11:40:31.419Z,75.09
2018-01-02T11:41:31.329Z,75.19
2018-01-02T11:42:31.233Z,75.47
2018-01-02T11:43:31.152Z,75.57
2018-01-02T11:44:31.068Z,75.19
2018-01-02T11:45:30.982Z,75.67
2018-01-02T11:46:30.885Z,74.80
2018-01-02T11:47:30.802Z,74.80
2018-01-02T11:48:30.711Z,75.09
2018-01-02T11:49:30.629Z,74.52
2018-01-02T11:50:30.534Z,74.90
2018-01-02T11:51:30.450Z,74.90
2018-01-02T11:52:30.362Z,75.28
2018-01-02T11:53:30.282Z,75.38
2018-01-02T11:54:30.207Z,75.28
2018-01-02T11:55:30.147Z,75.57
2018-01-02T11:56:30.028Z,75.47
2018-01-02T11:57:29.921Z,75.47
2018-01-02T11:58:29.886Z,75.09
2018-01-02T11:59:29.863Z,75.09
2018-01-02T12:00:29.752Z,75.19
2018-01-02T12:01:29.593Z,75.38
2018-01-02T12:02:29.491Z,75.47
2018-01-02T12:03:29.404Z,75.09
2018-01-02T12:04:29.351Z,75.76
2018-01-02T12:05:29.227Z,75.47
2018-01-02T12:06:29.134Z,75.38
2018-01-02T12:07:29.049Z,75.57
2018-01-02T12:08:28.953Z,75.38
2018-01-02T12:09:28.874Z,75.47
2018-01-02T12:10:28.783Z,75.57
2018-01-02T12:11:28.689Z,75.57
2018-01-02T12:12:28.605Z,75.19
2018-01-02T12:13:28.523Z,75.28
2018-01-02T12:14:28.429Z,75.47
2018-01-02T12:15:28.346Z,74.80
2018-01-02T12:16:28.250Z,75.28
2018-01-02T12:17:28.167Z,74.62
2018-01-02T12:18:28.081Z,74.90
2018-01-02T12:19:27.990Z,74.80
2018-01-02T12:20:27.906Z,75.38
2018-01-02T12:21:27.836Z,75.57
2018-01-02T12:22:27.725Z,75.09
2018-01-02T12:23:27.646Z,75.09
2018-01-02T12:24:27.553Z,74.90
2018-01-02T12:25:27.475Z,75.67
2018-01-02T12:26:27.391Z,75.95
2018-01-02T12:27:27.287Z,76.04
2018-01-02T12:28:27.202Z,75.85
2018-01-02T12:29:27.117Z,75.85
2018-01-02T12:30:27.020Z,75.95
2018-01-02T12:31:26.943Z,75.47
2018-01-02T12:32:26.846Z,75.47
2018-01-02T12:33:26.760Z,75.57
2018-01-02T12:34:26.682Z,75.28
2018-01-02T12:35:26.588Z,75.47
2018-01-02T12:36:26.503Z,75.76
2018-01-02T12:37:26.408Z,75.67
2018-01-02T12:38:26.321Z,76.04
2018-01-02T12:39:26.227Z,76.81
2018-01-02T12:40:26.147Z,76.71
2018-01-02T12:41:26.061Z,76.33
2018-01-02T12:42:25.964Z,76.71
2018-01-02T12:43:25.884Z,76.52
2018-01-02T12:44:25.792Z,76.42
2018-01-02T12:45:25.701Z,76.04
2018-01-02T12:46:25.615Z,75.76
2018-01-02T12:47:25.528Z,75.76
2018-01-02T12:48:25.439Z,75.76
2018-01-02T12:49:25.396Z,75.76
2018-01-02T12:50:25.288Z,75.28
2018-01-02T12:51:25.182Z,75.85